Terminal Aerodrome Forecast
Issued by NWS

Home | Current Version | Previous Version | Graphics & Text | Print | Product List | Glossary On
Versions: 1 2 3 4 5 6 7 8 9 10 11 12 13
189
FTUS43 KMPX 151127
TAFAXN
TAF
KAXN 151127Z 1512/1612 32012G18KT P6SM -SN SCT006 OVC013
      TEMPO 1512/1515 5SM -SN BKN006 OVC013
     FM151800 34016G27KT P6SM -SN OVC015
     FM160000 33018G24KT P6SM SCT020 BKN050
     FM160200 31014G22KT P6SM SKC
     FM160700 30010KT P6SM SKC=

USA.gov is the U.S. government's official web portal to all federal, state and local government web resources and services.